createdAt,value
2017-09-10T00:00:05.001Z,15.40
2017-09-10T00:02:40.284Z,15.37
2017-09-10T00:05:14.865Z,17.10
2017-09-10T00:07:50.236Z,16.57
2017-09-10T00:10:25.069Z,17.33
2017-09-10T00:13:00.253Z,17.27
2017-09-10T00:15:34.718Z,16.20
2017-09-10T00:18:10.393Z,18.67
2017-09-10T00:20:44.875Z,18.23
2017-09-10T00:23:19.829Z,17.70
2017-09-10T00:25:54.779Z,18.27
2017-09-10T00:28:29.612Z,18.00
2017-09-10T00:31:04.658Z,18.60
2017-09-10T00:33:39.484Z,16.90
2017-09-10T00:36:14.173Z,18.47
2017-09-10T00:38:49.025Z,18.67
2017-09-10T00:41:23.852Z,18.23
2017-09-10T00:43:58.880Z,17.50
2017-09-10T00:46:33.935Z,17.13
2017-09-10T00:49:08.984Z,17.37
2017-09-10T00:51:43.648Z,17.20
2017-09-10T00:54:17.742Z,16.93
2017-09-10T00:56:53.096Z,15.77
2017-09-10T00:59:27.797Z,15.97
2017-09-10T01:02:02.452Z,18.27
2017-09-10T01:04:37.337Z,17.93
2017-09-10T01:07:12.155Z,19.03
2017-09-10T01:09:47.108Z,18.70
2017-09-10T01:12:21.811Z,19.77
2017-09-10T01:14:56.815Z,19.93
2017-09-10T01:17:31.853Z,20.40
2017-09-10T01:20:06.259Z,19.90
2017-09-10T01:22:41.031Z,22.43
2017-09-10T01:25:16.035Z,20.47
2017-09-10T01:27:51.107Z,21.43
2017-09-10T01:30:25.531Z,20.50
2017-09-10T01:33:00.846Z,19.40
2017-09-10T01:35:35.528Z,22.10
2017-09-10T01:38:10.852Z,22.07
2017-09-10T01:40:45.396Z,21.50
2017-09-10T01:43:20.569Z,21.80
2017-09-10T01:45:54.993Z,19.63
2017-09-10T01:48:29.887Z,20.23
2017-09-10T01:51:04.619Z,19.80
2017-09-10T01:53:39.771Z,19.10
2017-09-10T01:56:14.609Z,19.40
2017-09-10T01:58:49.398Z,18.93
2017-09-10T02:01:24.020Z,18.00
2017-09-10T02:03:58.964Z,17.37
2017-09-10T02:06:34.019Z,17.43
2017-09-10T02:09:08.845Z,15.63
2017-09-10T02:11:44.041Z,14.50
2017-09-10T02:14:19.215Z,14.47
2017-09-10T02:16:54.073Z,16.30
2017-09-10T02:19:28.961Z,14.80
2017-09-10T02:22:03.704Z,15.70
2017-09-10T02:24:38.536Z,17.77
2017-09-10T02:27:13.085Z,16.50
2017-09-10T02:29:47.987Z,17.93
2017-09-10T02:32:22.794Z,16.00
2017-09-10T02:34:57.948Z,15.83
2017-09-10T02:37:32.804Z,15.70
2017-09-10T02:40:07.710Z,14.83
2017-09-10T02:42:42.761Z,15.40
2017-09-10T02:45:17.665Z,15.60
2017-09-10T02:47:52.662Z,15.90
2017-09-10T02:50:27.597Z,14.80
2017-09-10T02:53:02.501Z,14.50
2017-09-10T02:55:37.219Z,15.33
2017-09-10T02:58:12.175Z,16.33
2017-09-10T03:00:46.984Z,17.10
2017-09-10T03:03:21.813Z,17.60
2017-09-10T03:05:56.565Z,21.73
2017-09-10T03:08:31.396Z,22.43
2017-09-10T03:11:06.505Z,22.50
2017-09-10T03:13:41.673Z,23.83
2017-09-10T03:16:16.780Z,24.23
2017-09-10T03:18:51.627Z,29.00
2017-09-10T03:21:26.361Z,29.63
2017-09-10T03:24:01.292Z,32.03
2017-09-10T03:26:36.041Z,30.17
2017-09-10T03:29:11.064Z,28.07
2017-09-10T03:31:45.876Z,30.07
2017-09-10T03:34:20.648Z,28.90
2017-09-10T03:36:55.703Z,31.80
2017-09-10T03:39:30.481Z,30.67
2017-09-10T03:42:05.608Z,30.73
2017-09-10T03:44:40.477Z,32.80
2017-09-10T03:47:15.509Z,32.63
2017-09-10T03:49:50.055Z,31.70
2017-09-10T03:52:24.974Z,32.60
2017-09-10T03:54:59.980Z,33.80
2017-09-10T03:57:34.649Z,32.97
2017-09-10T04:00:09.519Z,34.30
2017-09-10T04:02:44.765Z,36.10
2017-09-10T04:05:19.496Z,35.60
2017-09-10T04:07:54.711Z,34.30
2017-09-10T04:10:29.431Z,34.97
2017-09-10T04:13:04.460Z,33.60
2017-09-10T04:15:39.172Z,33.60
2017-09-10T04:18:13.669Z,35.77
2017-09-10T04:20:48.644Z,34.23
2017-09-10T04:23:22.868Z,33.77
2017-09-10T04:25:58.239Z,34.47
2017-09-10T04:28:32.973Z,35.60
2017-09-10T04:31:07.378Z,36.10
2017-09-10T04:33:42.525Z,34.37
2017-09-10T04:36:17.468Z,33.80
2017-09-10T04:38:52.499Z,35.20
2017-09-10T04:41:27.327Z,33.80
2017-09-10T04:44:01.992Z,34.73
2017-09-10T04:46:38.123Z,36.90
2017-09-10T04:49:12.849Z,32.80
2017-09-10T04:51:47.801Z,34.80
2017-09-10T04:54:22.672Z,34.40
2017-09-10T04:56:57.529Z,38.07
2017-09-10T04:59:32.635Z,34.07
2017-09-10T05:02:07.292Z,37.30
2017-09-10T05:04:41.933Z,35.03
2017-09-10T05:07:16.595Z,36.30
2017-09-10T05:09:51.924Z,36.03
2017-09-10T05:12:26.963Z,36.50
2017-09-10T05:15:01.653Z,36.97
2017-09-10T05:17:36.547Z,36.97
2017-09-10T05:20:11.131Z,35.17
2017-09-10T05:22:46.332Z,35.50
2017-09-10T05:25:20.663Z,37.50
2017-09-10T05:27:55.660Z,35.50
2017-09-10T05:30:30.024Z,36.13
2017-09-10T05:33:05.169Z,37.33
2017-09-10T05:35:40.409Z,37.10
2017-09-10T05:38:15.653Z,35.23
2017-09-10T05:40:50.827Z,38.00
2017-09-10T05:43:25.212Z,39.37
2017-09-10T05:46:00.080Z,39.67
2017-09-10T05:48:34.926Z,38.50
2017-09-10T05:51:09.635Z,38.97
2017-09-10T05:53:44.472Z,35.83
2017-09-10T05:56:19.303Z,38.20
2017-09-10T05:58:54.260Z,39.37
2017-09-10T06:01:29.100Z,37.73
2017-09-10T06:04:04.335Z,37.20
2017-09-10T06:06:38.972Z,36.30
2017-09-10T06:09:14.242Z,37.40
2017-09-10T06:11:50.129Z,37.77
2017-09-10T06:14:25.080Z,36.30
2017-09-10T06:16:59.608Z,34.83
2017-09-10T06:19:34.508Z,35.80
2017-09-10T06:22:09.248Z,35.70
2017-09-10T06:24:44.427Z,37.70
2017-09-10T06:27:19.068Z,33.97
2017-09-10T06:29:55.522Z,37.43
2017-09-10T06:32:29.933Z,35.40
2017-09-10T06:35:04.396Z,35.70
2017-09-10T06:37:39.627Z,34.30
2017-09-10T06:40:14.476Z,35.27
2017-09-10T06:42:49.319Z,37.17
2017-09-10T06:45:24.220Z,33.60
2017-09-10T06:47:58.873Z,36.17
2017-09-10T06:50:33.810Z,35.03
2017-09-10T06:53:08.581Z,35.73
2017-09-10T06:55:43.313Z,35.40
2017-09-10T06:58:19.161Z,37.47
2017-09-10T07:00:54.031Z,36.67
2017-09-10T07:03:28.776Z,32.40
2017-09-10T07:06:03.825Z,35.83
2017-09-10T07:08:38.749Z,33.90
2017-09-10T07:11:13.764Z,35.80
2017-09-10T07:13:48.981Z,36.37
2017-09-10T07:16:23.837Z,36.57
2017-09-10T07:18:58.913Z,34.97
2017-09-10T07:21:33.922Z,33.57
2017-09-10T07:24:08.444Z,33.00
2017-09-10T07:26:43.292Z,35.10
2017-09-10T07:29:18.524Z,34.87
2017-09-10T07:31:54.204Z,35.30
2017-09-10T07:34:29.201Z,30.23
2017-09-10T07:37:04.292Z,33.07
2017-09-10T07:39:39.288Z,31.80
2017-09-10T07:42:14.149Z,35.83
2017-09-10T07:44:48.991Z,33.23
2017-09-10T07:47:24.059Z,32.57
2017-09-10T07:49:58.495Z,32.90
2017-09-10T07:52:33.295Z,29.87
2017-09-10T07:55:07.834Z,27.83
2017-09-10T07:57:42.945Z,28.90
2017-09-10T08:00:17.988Z,28.83
2017-09-10T08:02:52.889Z,26.47
2017-09-10T08:05:27.710Z,23.80
2017-09-10T08:08:03.463Z,25.20
2017-09-10T08:10:38.429Z,25.00
2017-09-10T08:13:12.841Z,26.53
2017-09-10T08:15:47.443Z,27.33
2017-09-10T08:18:22.476Z,25.87
2017-09-10T08:20:57.432Z,26.37
2017-09-10T08:23:32.223Z,25.57
2017-09-10T08:26:07.667Z,23.60
2017-09-10T08:28:42.115Z,24.90
2017-09-10T08:31:17.124Z,24.63
2017-09-10T08:33:51.889Z,25.90
2017-09-10T08:36:26.592Z,22.77
2017-09-10T08:39:01.481Z,19.77
2017-09-10T08:41:36.437Z,20.73
2017-09-10T08:44:11.644Z,22.50
2017-09-10T08:46:46.476Z,19.87
2017-09-10T08:49:21.205Z,20.20
2017-09-10T08:51:56.504Z,19.10
2017-09-10T08:54:31.553Z,19.67
2017-09-10T08:57:06.460Z,20.87
2017-09-10T08:59:41.245Z,20.27
2017-09-10T09:02:16.272Z,19.57
2017-09-10T09:04:51.496Z,19.00
2017-09-10T09:07:26.453Z,18.93
2017-09-10T09:10:01.378Z,18.50
2017-09-10T09:12:36.572Z,17.50
2017-09-10T09:15:11.280Z,16.40
2017-09-10T09:17:46.232Z,11.73
2017-09-10T09:20:21.280Z,12.53
2017-09-10T09:22:56.397Z,13.00
2017-09-10T09:25:31.400Z,12.63
2017-09-10T09:28:06.279Z,11.90
2017-09-10T09:30:41.237Z,11.83
2017-09-10T09:33:16.188Z,12.23
2017-09-10T09:35:51.237Z,12.60
2017-09-10T09:38:26.035Z,10.60
2017-09-10T09:41:01.065Z,12.20
2017-09-10T09:43:36.019Z,13.30
2017-09-10T09:46:11.219Z,12.67
2017-09-10T09:48:45.854Z,12.93
2017-09-10T09:51:20.716Z,12.17
2017-09-10T09:53:54.930Z,14.33
2017-09-10T09:56:29.992Z,13.87
2017-09-10T09:59:05.103Z,12.60
2017-09-10T10:01:39.868Z,14.80
2017-09-10T10:04:14.753Z,14.20
2017-09-10T10:06:49.524Z,13.50
2017-09-10T10:09:24.240Z,13.73
2017-09-10T10:11:59.603Z,13.53
2017-09-10T10:14:34.332Z,15.67
2017-09-10T10:17:09.167Z,14.60
2017-09-10T10:19:44.048Z,13.73
2017-09-10T10:22:18.477Z,14.00
2017-09-10T10:24:53.278Z,13.30
2017-09-10T10:27:28.036Z,12.97
2017-09-10T10:30:03.261Z,12.40
2017-09-10T10:32:37.980Z,11.13
2017-09-10T10:35:12.821Z,11.50
2017-09-10T10:37:47.868Z,11.60
2017-09-10T10:40:22.991Z,10.63
2017-09-10T10:42:58.037Z,11.07
2017-09-10T10:45:33.080Z,10.80
2017-09-10T10:48:08.416Z,8.27
2017-09-10T10:50:43.400Z,8.47
2017-09-10T10:53:18.536Z,9.97
2017-09-10T10:55:53.312Z,9.67
2017-09-10T10:58:28.140Z,9.67
2017-09-10T11:01:03.074Z,7.80
2017-09-10T11:03:38.019Z,7.60
2017-09-10T11:06:12.948Z,8.20
2017-09-10T11:08:47.952Z,8.10
2017-09-10T11:11:22.717Z,7.67
2017-09-10T11:13:57.236Z,8.37
2017-09-10T11:16:31.941Z,6.33
2017-09-10T11:19:06.660Z,6.87
2017-09-10T11:21:41.397Z,7.40
2017-09-10T11:24:16.180Z,5.33
2017-09-10T11:26:51.000Z,5.67
2017-09-10T11:29:25.808Z,5.60
2017-09-10T11:32:00.431Z,5.63
2017-09-10T11:34:35.188Z,5.70
2017-09-10T11:37:10.073Z,5.03
2017-09-10T11:39:44.715Z,5.50
2017-09-10T11:42:19.601Z,6.30
2017-09-10T11:44:54.469Z,4.67
2017-09-10T11:47:29.489Z,5.27
2017-09-10T11:50:04.111Z,4.97
2017-09-10T11:52:38.992Z,4.43
2017-09-10T11:55:13.712Z,4.97
2017-09-10T11:57:48.629Z,4.60
2017-09-10T12:00:23.253Z,5.70
2017-09-10T12:02:58.694Z,4.10
2017-09-10T12:05:33.397Z,3.20
2017-09-10T12:08:08.304Z,3.23
2017-09-10T12:10:43.208Z,4.03
2017-09-10T12:13:18.704Z,3.70
2017-09-10T12:15:53.227Z,4.17
2017-09-10T12:18:28.261Z,4.70
2017-09-10T12:21:04.145Z,3.57
2017-09-10T12:23:38.776Z,3.40
2017-09-10T12:26:13.780Z,3.50
2017-09-10T12:28:48.789Z,3.47
2017-09-10T12:31:23.789Z,3.30
2017-09-10T12:33:58.973Z,2.70
2017-09-10T12:36:33.997Z,2.37
2017-09-10T12:39:08.728Z,2.20
2017-09-10T12:41:43.776Z,2.60
2017-09-10T12:44:18.792Z,2.50
2017-09-10T12:46:53.913Z,2.10
2017-09-10T12:49:28.847Z,2.93
2017-09-10T12:52:03.644Z,2.70
2017-09-10T12:54:38.503Z,2.00
2017-09-10T12:57:13.349Z,1.73
2017-09-10T12:59:47.840Z,2.60
2017-09-10T13:02:22.636Z,1.63
2017-09-10T13:04:57.714Z,2.30
2017-09-10T13:07:32.444Z,2.20
2017-09-10T13:10:07.591Z,2.13
2017-09-10T13:12:42.420Z,1.87
2017-09-10T13:15:17.144Z,1.73
2017-09-10T13:17:51.733Z,2.20
2017-09-10T13:20:26.704Z,2.40
2017-09-10T13:23:01.380Z,2.50
2017-09-10T13:25:36.021Z,2.30
2017-09-10T13:28:10.787Z,2.40
2017-09-10T13:30:45.668Z,2.20
2017-09-10T13:33:20.425Z,2.23
2017-09-10T13:35:55.233Z,1.90
2017-09-10T13:38:30.385Z,2.03
2017-09-10T13:41:04.879Z,2.30
2017-09-10T13:43:39.679Z,2.57
2017-09-10T13:46:14.545Z,2.30
2017-09-10T13:48:49.468Z,2.30
2017-09-10T13:51:24.441Z,2.00
2017-09-10T13:53:59.471Z,2.07
2017-09-10T13:56:34.032Z,2.73
2017-09-10T13:59:09.340Z,2.00
2017-09-10T14:01:44.512Z,2.03
2017-09-10T14:04:20.413Z,1.90
2017-09-10T14:06:55.096Z,2.40
2017-09-10T14:09:29.856Z,2.50
2017-09-10T14:12:04.756Z,1.97
2017-09-10T14:14:39.472Z,2.10
2017-09-10T14:17:14.260Z,2.57
2017-09-10T14:19:49.208Z,2.30
2017-09-10T14:22:24.111Z,2.83
2017-09-10T14:24:58.869Z,2.60
2017-09-10T14:27:33.496Z,2.77
2017-09-10T14:30:08.424Z,2.83
2017-09-10T14:32:43.332Z,2.60
2017-09-10T14:35:17.969Z,2.43
2017-09-10T14:37:52.762Z,2.60
2017-09-10T14:40:27.297Z,2.30
2017-09-10T14:43:01.838Z,2.37
2017-09-10T14:45:36.968Z,2.10
2017-09-10T14:48:11.676Z,2.90
2017-09-10T14:50:46.561Z,2.50
2017-09-10T14:53:21.560Z,2.40
2017-09-10T14:55:56.533Z,2.50
2017-09-10T14:58:31.292Z,2.03
2017-09-10T15:01:06.048Z,2.27
2017-09-10T15:03:40.891Z,2.60
2017-09-10T15:06:15.871Z,2.20
2017-09-10T15:08:50.556Z,1.87
2017-09-10T15:11:25.948Z,2.10
2017-09-10T15:14:01.041Z,2.20
2017-09-10T15:16:36.096Z,1.93
2017-09-10T15:19:10.992Z,2.40
2017-09-10T15:21:45.811Z,2.00
2017-09-10T15:24:20.809Z,2.10
2017-09-10T15:26:55.600Z,2.43
2017-09-10T15:29:30.349Z,2.47
2017-09-10T15:32:05.197Z,1.80
2017-09-10T15:34:40.179Z,2.37
2017-09-10T15:37:15.276Z,1.83
2017-09-10T15:39:49.953Z,1.67
2017-09-10T15:42:24.865Z,1.67
2017-09-10T15:44:59.633Z,0.90
2017-09-10T15:47:34.480Z,1.70
2017-09-10T15:50:09.481Z,1.40
2017-09-10T15:52:44.800Z,1.57
2017-09-10T15:55:19.556Z,1.30
2017-09-10T15:57:54.778Z,1.53
2017-09-10T16:00:29.564Z,1.80
2017-09-10T16:03:04.238Z,1.40
2017-09-10T16:05:39.133Z,2.17
2017-09-10T16:08:14.127Z,1.43
2017-09-10T16:10:48.994Z,1.53
2017-09-10T16:13:23.793Z,2.10
2017-09-10T16:15:58.498Z,1.70
2017-09-10T16:18:33.245Z,1.47
2017-09-10T16:21:08.106Z,1.50
2017-09-10T16:23:44.224Z,1.30
2017-09-10T16:26:18.956Z,1.70
2017-09-10T16:28:53.471Z,1.57
2017-09-10T16:31:28.533Z,1.70
2017-09-10T16:34:03.129Z,1.70
2017-09-10T16:36:38.073Z,1.57
2017-09-10T16:39:12.700Z,1.70
2017-09-10T16:41:47.828Z,1.60
2017-09-10T16:44:22.992Z,1.60
2017-09-10T16:46:58.221Z,1.90
2017-09-10T16:49:32.939Z,1.50
2017-09-10T16:52:07.667Z,1.40
2017-09-10T16:54:42.512Z,1.53
2017-09-10T16:57:18.008Z,1.60
2017-09-10T16:59:52.500Z,1.57
2017-09-10T17:02:27.532Z,1.57
2017-09-10T17:05:02.285Z,1.60
2017-09-10T17:07:36.996Z,1.67
2017-09-10T17:10:11.860Z,1.83
2017-09-10T17:12:46.644Z,1.60
2017-09-10T17:15:21.677Z,1.60
2017-09-10T17:17:56.309Z,1.63
2017-09-10T17:20:31.284Z,1.77
2017-09-10T17:23:05.989Z,1.90
2017-09-10T17:25:40.793Z,1.80
2017-09-10T17:28:15.921Z,1.67
2017-09-10T17:30:50.744Z,1.80
2017-09-10T17:33:25.673Z,1.87
2017-09-10T17:36:00.648Z,1.87
2017-09-10T17:38:35.561Z,1.60
2017-09-10T17:41:10.189Z,1.70
2017-09-10T17:43:45.319Z,1.80
2017-09-10T17:46:20.065Z,1.73
2017-09-10T17:48:54.847Z,1.33
2017-09-10T17:51:29.925Z,1.80
2017-09-10T17:54:04.592Z,1.80
2017-09-10T17:56:39.452Z,2.07
2017-09-10T17:59:14.213Z,2.17
2017-09-10T18:01:49.003Z,1.70
2017-09-10T18:04:23.875Z,1.80
2017-09-10T18:07:00.456Z,2.37
2017-09-10T18:09:35.053Z,1.63
2017-09-10T18:12:09.959Z,1.60
2017-09-10T18:14:45.224Z,2.00
2017-09-10T18:17:19.848Z,1.57
2017-09-10T18:19:54.526Z,1.90
2017-09-10T18:22:29.619Z,1.60
2017-09-10T18:25:04.336Z,1.60
2017-09-10T18:27:39.105Z,1.30
2017-09-10T18:30:14.141Z,1.63
2017-09-10T18:32:48.981Z,1.83
2017-09-10T18:35:23.876Z,1.97
2017-09-10T18:37:58.687Z,2.00
2017-09-10T18:40:33.421Z,2.10
2017-09-10T18:43:08.452Z,1.67
2017-09-10T18:45:43.312Z,1.50
2017-09-10T18:48:18.328Z,2.30
2017-09-10T18:50:52.801Z,2.27
2017-09-10T18:53:27.770Z,1.83
2017-09-10T18:56:02.333Z,2.03
2017-09-10T18:58:37.000Z,2.30
2017-09-10T19:01:11.701Z,1.80
2017-09-10T19:03:46.345Z,1.93
2017-09-10T19:06:21.253Z,1.90
2017-09-10T19:08:56.175Z,1.90
2017-09-10T19:11:30.937Z,1.90
2017-09-10T19:14:05.417Z,2.00
2017-09-10T19:16:40.688Z,1.80
2017-09-10T19:19:16.004Z,1.70
2017-09-10T19:21:50.844Z,1.80
2017-09-10T19:24:25.679Z,1.77
2017-09-10T19:27:00.713Z,2.10
2017-09-10T19:29:35.652Z,2.03
2017-09-10T19:32:10.584Z,1.80
2017-09-10T19:34:45.464Z,1.67
2017-09-10T19:37:20.245Z,1.73
2017-09-10T19:39:55.273Z,2.30
2017-09-10T19:42:29.991Z,2.00
2017-09-10T19:45:04.706Z,2.50
2017-09-10T19:47:39.412Z,1.97
2017-09-10T19:50:14.709Z,2.30
2017-09-10T19:52:49.548Z,2.00
2017-09-10T19:55:24.584Z,2.10
2017-09-10T19:57:59.645Z,2.37
2017-09-10T20:00:34.059Z,1.93
2017-09-10T20:03:08.829Z,2.10
2017-09-10T20:05:43.725Z,2.10
2017-09-10T20:08:18.547Z,1.90
2017-09-10T20:10:53.655Z,2.10
2017-09-10T20:13:28.417Z,2.00
2017-09-10T20:16:03.256Z,2.57
2017-09-10T20:18:37.959Z,2.27
2017-09-10T20:21:12.464Z,2.00
2017-09-10T20:23:47.640Z,2.13
2017-09-10T20:26:22.556Z,2.40
2017-09-10T20:28:57.332Z,1.87
2017-09-10T20:31:32.042Z,2.80
2017-09-10T20:34:07.083Z,2.17
2017-09-10T20:36:41.988Z,2.67
2017-09-10T20:39:16.908Z,2.47
2017-09-10T20:41:51.537Z,2.50
2017-09-10T20:44:26.342Z,2.37
2017-09-10T20:47:01.140Z,2.60
2017-09-10T20:49:36.009Z,2.17
2017-09-10T20:52:10.482Z,2.40
2017-09-10T20:54:45.422Z,2.60
2017-09-10T20:57:20.128Z,2.50
2017-09-10T20:59:55.077Z,1.83
2017-09-10T21:02:29.615Z,2.60
2017-09-10T21:05:04.409Z,2.67
2017-09-10T21:07:40.344Z,1.80
2017-09-10T21:10:15.007Z,2.50
2017-09-10T21:12:50.073Z,2.30
2017-09-10T21:15:24.588Z,2.33
2017-09-10T21:17:59.387Z,2.23
2017-09-10T21:20:34.317Z,2.20
2017-09-10T21:23:08.963Z,2.43
2017-09-10T21:25:43.392Z,2.27
2017-09-10T21:28:17.940Z,2.33
2017-09-10T21:30:52.616Z,2.37
2017-09-10T21:33:27.436Z,1.87
2017-09-10T21:36:02.239Z,2.30
2017-09-10T21:38:37.085Z,2.67
2017-09-10T21:41:12.247Z,2.37
2017-09-10T21:43:47.121Z,2.47
2017-09-10T21:46:21.696Z,2.50
2017-09-10T21:48:56.735Z,2.50
2017-09-10T21:51:31.917Z,2.33
2017-09-10T21:54:06.450Z,2.00
2017-09-10T21:56:41.020Z,1.90
2017-09-10T21:59:16.118Z,1.87
2017-09-10T22:01:50.503Z,1.90
2017-09-10T22:04:25.534Z,2.10
2017-09-10T22:07:00.354Z,2.10
2017-09-10T22:09:35.784Z,2.10
2017-09-10T22:12:10.624Z,1.80
2017-09-10T22:14:45.343Z,2.40
2017-09-10T22:17:20.171Z,1.83
2017-09-10T22:19:54.925Z,2.00
2017-09-10T22:22:29.685Z,1.50
2017-09-10T22:25:04.708Z,1.93
2017-09-10T22:27:39.518Z,1.80
2017-09-10T22:30:14.131Z,2.03
2017-09-10T22:32:48.868Z,2.00
2017-09-10T22:35:23.621Z,1.80
2017-09-10T22:38:41.740Z,1.80
2017-09-10T22:41:17.235Z,1.87
2017-09-10T22:43:51.859Z,2.30
2017-09-10T22:46:26.412Z,1.90
2017-09-10T22:49:01.065Z,2.10
2017-09-10T22:51:35.695Z,1.80
2017-09-10T22:54:10.540Z,1.73
2017-09-10T22:56:45.298Z,2.40
2017-09-10T22:59:20.123Z,2.00
2017-09-10T23:01:55.825Z,1.90
2017-09-10T23:04:30.775Z,1.53
2017-09-10T23:10:10.810Z,1.60
2017-09-10T23:12:45.884Z,1.90
2017-09-10T23:15:20.684Z,1.80
2017-09-10T23:17:55.185Z,2.30
2017-09-10T23:20:30.129Z,1.70
2017-09-10T23:23:04.708Z,1.87
2017-09-10T23:25:39.274Z,1.73
2017-09-10T23:28:14.041Z,1.97
2017-09-10T23:30:49.005Z,1.90
2017-09-10T23:33:23.677Z,2.30
2017-09-10T23:35:58.456Z,1.80
2017-09-10T23:38:33.171Z,2.07
2017-09-10T23:41:08.053Z,2.00
2017-09-10T23:43:42.766Z,1.87
2017-09-10T23:46:17.255Z,1.90
2017-09-10T23:48:52.160Z,1.90
2017-09-10T23:51:26.969Z,2.13
2017-09-10T23:54:01.701Z,1.50
2017-09-10T23:56:36.399Z,1.90
2017-09-10T23:59:11.224Z,2.53
